Bad Windsheim Airport


Codes: EDQB/
Name: Bad Windsheim Airport
City: Bad Windsheim
Country: Germany
Elevation: 1220 ft.

Photos at Bad Windsheim Airport


   Photos courtesy of SpottingLog. You can add your own sightings and photos by signing up for a free trial today.



No photos found.

Weather at Bad Windsheim Airport


Time (UTC)DescriptionTempratureWindCloud coverageVisibilityPressureHumidity
21-Feb-2024 03:00Clear Sky7°C11 mph, SW0%10000m1008hPa84%
21-Feb-2024 06:00Scattered Clouds6°C9 mph, SW33%10000m1013hPa86%
21-Feb-2024 09:00Broken Clouds7°C9 mph, SW67%10000m1018hPa80%
21-Feb-2024 12:00Overcast Clouds9°C7 mph, SW100%10000m1020hPa66%
21-Feb-2024 15:00Overcast Clouds9°C7 mph, SW100%10000m1017hPa71%
21-Feb-2024 18:00Overcast Clouds7°C4 mph, S100%10000m1015hPa78%
21-Feb-2024 21:00Overcast Clouds7°C9 mph, SW100%10000m1014hPa74%
22-Feb-2024 00:00Light Rain7°C18 mph, SW100%10000m1011hPa88%
22-Feb-2024 03:00Light Rain7°C18 mph, SW100%10000m1007hPa89%
22-Feb-2024 06:00Light Rain7°C16 mph, SW100%10000m1005hPa91%
22-Feb-2024 09:00Light Rain8°C18 mph, SW100%10000m1003hPa88%
22-Feb-2024 12:00Light Rain9°C18 mph, SW100%10000m1000hPa86%
22-Feb-2024 15:00Overcast Clouds9°C18 mph, SW100%10000m997hPa85%
22-Feb-2024 18:00Light Rain9°C18 mph, SW100%8226m994hPa90%
22-Feb-2024 21:00Moderate Rain10°C22 mph, SW100%10000m995hPa87%
23-Feb-2024 00:00Light Rain7°C20 mph, W100%10000m998hPa80%
23-Feb-2024 03:00Overcast Clouds5°C18 mph, W100%10000m1000hPa83%
23-Feb-2024 06:00Light Rain4°C13 mph, SW100%10000m1002hPa83%
23-Feb-2024 09:00Overcast Clouds4°C11 mph, SW100%10000m1003hPa78%
23-Feb-2024 12:00Overcast Clouds5°C9 mph, SW100%10000m1002hPa66%
23-Feb-2024 15:00Overcast Clouds6°C9 mph, S100%10000m1001hPa70%
23-Feb-2024 18:00Overcast Clouds3°C11 mph, S100%10000m1001hPa84%
23-Feb-2024 21:00Overcast Clouds2°C7 mph, S100%10000m1000hPa86%
24-Feb-2024 00:00Overcast Clouds2°C4 mph, S100%10000m999hPa85%
24-Feb-2024 03:00Overcast Clouds1°C4 mph, S100%10000m1000hPa87%
24-Feb-2024 06:00Overcast Clouds2°C4 mph, SW100%10000m1001hPa88%
24-Feb-2024 09:00Overcast Clouds4°C7 mph, SW95%10000m1003hPa75%
24-Feb-2024 12:00Overcast Clouds5°C13 mph, S94%10000m1004hPa70%
24-Feb-2024 15:00Light Rain7°C9 mph, SW64%10000m1005hPa65%
24-Feb-2024 18:00Light Rain3°C7 mph, SE66%10000m1007hPa83%
24-Feb-2024 21:00Overcast Clouds3°C4 mph, S98%10000m1008hPa84%
25-Feb-2024 00:00Light Rain2°C4 mph, SE89%10000m1007hPa84%
25-Feb-2024 03:00Scattered Clouds1°C7 mph, SE31%10000m1007hPa87%
25-Feb-2024 06:00Few Clouds1°C7 mph, S19%10000m1008hPa84%
25-Feb-2024 09:00Scattered Clouds5°C11 mph, SW31%10000m1008hPa74%
25-Feb-2024 12:00Broken Clouds6°C9 mph, W64%10000m1008hPa70%
25-Feb-2024 15:00Overcast Clouds5°C4 mph, NW100%10000m1007hPa77%
25-Feb-2024 18:00Broken Clouds2°C7 mph, E74%10000m1007hPa89%
25-Feb-2024 21:00Scattered Clouds1°C7 mph, SE34%10000m1006hPa90%
26-Feb-2024 00:00Broken Clouds1°C7 mph, SE63%10000m1005hPa86%